Terminal Aerodrome Forecast
Issued by NWS Louisville, KY

Home | Current Version | Previous Version | Text Only | Print | Product List | Glossary On
Versions: 1 2 3 4 5 6 7 8 9 10 11 12 13 14 15 16 17 18 19 20 21
000
FTUS43 KLMK 270500
TAFLEX
TAF
KLEX 270523Z 2706/2806 VRB03KT P6SM FEW050 SCT120
     FM270900 VRB03KT 4SM BR SCT050 BKN120
      TEMPO 2710/2712 2SM BR
     FM271200 25004KT P6SM SCT020 BKN070
     FM271800 VRB05KT P6SM VCSH BKN050=

USA.gov is the U.S. government's official web portal to all federal, state and local government web resources and services.